createdAt,value
2022-10-02T00:01:14.212Z,0.70
2022-10-02T00:03:43.040Z,0.90
2022-10-02T00:06:18.280Z,0.70
2022-10-02T00:08:46.896Z,0.80
2022-10-02T00:11:17.620Z,0.90
2022-10-02T00:13:50.199Z,0.80
2022-10-02T00:16:37.921Z,0.82
2022-10-02T00:19:05.996Z,0.60
2022-10-02T00:21:49.071Z,0.93
2022-10-02T00:24:18.301Z,0.80
2022-10-02T00:27:05.699Z,0.93
2022-10-02T00:29:39.249Z,0.90
2022-10-02T00:32:26.197Z,1.15
2022-10-02T00:35:01.487Z,0.85
2022-10-02T00:37:37.915Z,1.48
2022-10-02T00:40:08.258Z,1.35
2022-10-02T00:42:41.988Z,1.60
2022-10-02T00:45:28.162Z,1.50
2022-10-02T00:47:56.276Z,1.42
2022-10-02T00:50:26.658Z,1.05
2022-10-02T00:53:12.802Z,1.10
2022-10-02T00:55:46.167Z,0.90
2022-10-02T00:58:16.785Z,0.90
2022-10-02T01:00:48.112Z,0.90
2022-10-02T01:03:19.880Z,0.98
2022-10-02T01:05:47.753Z,1.35
2022-10-02T01:08:15.495Z,1.20
2022-10-02T01:10:43.100Z,1.20
2022-10-02T01:13:10.808Z,1.10
2022-10-02T01:15:40.225Z,0.90
2022-10-02T01:18:08.229Z,1.05
2022-10-02T01:20:44.999Z,0.65
2022-10-02T01:23:29.225Z,0.90
2022-10-02T01:25:56.451Z,0.80
2022-10-02T01:28:24.153Z,0.70
2022-10-02T01:30:55.551Z,1.02
2022-10-02T01:33:23.368Z,0.93
2022-10-02T01:35:50.903Z,1.20
2022-10-02T01:38:20.089Z,1.10
2022-10-02T01:40:47.293Z,0.80
2022-10-02T01:43:23.712Z,0.93
2022-10-02T01:45:51.075Z,1.10
2022-10-02T01:48:39.203Z,1.23
2022-10-02T01:51:06.461Z,1.27
2022-10-02T01:53:50.903Z,1.23
2022-10-02T01:56:31.745Z,1.40
2022-10-02T01:59:08.152Z,0.90
2022-10-02T02:01:48.178Z,1.50
2022-10-02T02:04:15.447Z,1.27
2022-10-02T02:06:48.873Z,1.10
2022-10-02T02:09:28.048Z,1.10
2022-10-02T02:11:59.153Z,1.10
2022-10-02T02:14:31.660Z,1.40
2022-10-02T02:17:09.616Z,1.20
2022-10-02T02:19:48.044Z,1.00
2022-10-02T02:22:18.987Z,1.50
2022-10-02T02:24:52.377Z,0.75
2022-10-02T02:27:21.860Z,0.98
2022-10-02T02:29:50.562Z,1.10
2022-10-02T02:32:19.904Z,1.30
2022-10-02T02:34:49.825Z,0.77
2022-10-02T02:37:19.354Z,0.88
2022-10-02T02:39:46.488Z,1.20
2022-10-02T02:42:17.823Z,1.00
2022-10-02T02:44:50.026Z,0.70
2022-10-02T02:47:19.080Z,0.80
2022-10-02T02:49:46.265Z,0.93
2022-10-02T02:52:16.931Z,1.30
2022-10-02T02:54:46.286Z,0.95
2022-10-02T02:57:14.053Z,0.85
2022-10-02T02:59:42.923Z,0.90
2022-10-02T03:02:10.352Z,0.80
2022-10-02T03:04:37.965Z,0.82
2022-10-02T03:07:05.635Z,1.00
2022-10-02T03:09:33.961Z,1.05
2022-10-02T03:12:04.356Z,1.00
2022-10-02T03:14:43.671Z,0.88
2022-10-02T03:17:43.415Z,1.48
2022-10-02T03:20:29.325Z,0.75
2022-10-02T03:23:11.916Z,1.25
2022-10-02T03:25:54.334Z,1.17
2022-10-02T03:28:53.813Z,0.98
2022-10-02T03:31:16.502Z,0.93
2022-10-02T03:33:44.497Z,1.35
2022-10-02T03:36:12.879Z,0.98
2022-10-02T03:38:40.405Z,0.93
2022-10-02T03:41:07.727Z,0.98
2022-10-02T03:43:34.876Z,1.05
2022-10-02T03:46:02.236Z,1.15
2022-10-02T03:48:29.358Z,1.00
2022-10-02T03:50:56.806Z,0.90
2022-10-02T03:53:25.618Z,1.00
2022-10-02T03:56:03.669Z,1.13
2022-10-02T03:58:30.965Z,1.10
2022-10-02T04:01:10.391Z,1.00
2022-10-02T04:03:39.716Z,1.10
2022-10-02T04:06:10.476Z,1.02
2022-10-02T04:08:42.698Z,0.90
2022-10-02T04:11:33.696Z,1.20
2022-10-02T04:14:07.084Z,1.10
2022-10-02T04:16:38.045Z,0.98
2022-10-02T04:19:05.410Z,1.10
2022-10-02T04:21:40.225Z,0.90
2022-10-02T04:24:13.268Z,1.10
2022-10-02T04:26:43.909Z,1.33
2022-10-02T04:29:20.984Z,1.00
2022-10-02T04:31:51.640Z,1.20
2022-10-02T04:34:18.879Z,1.30
2022-10-02T04:37:01.487Z,1.20
2022-10-02T04:39:28.561Z,1.02
2022-10-02T04:42:24.899Z,1.30
2022-10-02T04:45:10.771Z,1.15
2022-10-02T04:47:56.889Z,0.98
2022-10-02T04:50:42.806Z,0.93
2022-10-02T04:53:12.890Z,0.93
2022-10-02T04:55:52.439Z,1.17
2022-10-02T04:58:33.900Z,1.02
2022-10-02T05:01:20.395Z,1.17
2022-10-02T05:04:05.435Z,1.00
2022-10-02T05:06:32.537Z,1.08
2022-10-02T05:09:02.807Z,1.00
2022-10-02T05:11:48.447Z,1.10
2022-10-02T05:14:22.002Z,1.15
2022-10-02T05:17:05.068Z,1.10
2022-10-02T05:19:36.821Z,1.00
2022-10-02T05:22:08.363Z,1.20
2022-10-02T05:24:35.588Z,0.90
2022-10-02T05:27:02.683Z,1.08
2022-10-02T05:30:05.570Z,1.20
2022-10-02T05:32:38.590Z,1.08
2022-10-02T05:35:08.760Z,1.10
2022-10-02T05:37:38.960Z,1.20
2022-10-02T05:40:18.550Z,1.30
2022-10-02T05:42:50.081Z,1.25
2022-10-02T05:45:25.541Z,1.20
2022-10-02T05:47:54.240Z,1.05
2022-10-02T05:50:24.699Z,1.77
2022-10-02T05:52:56.973Z,1.27
2022-10-02T05:55:24.067Z,1.05
2022-10-02T05:58:06.900Z,1.45
2022-10-02T06:00:43.969Z,1.08
2022-10-02T06:03:14.158Z,1.38
2022-10-02T06:05:44.072Z,1.42
2022-10-02T06:08:14.319Z,1.30
2022-10-02T06:10:47.633Z,1.30
2022-10-02T06:13:19.294Z,0.98
2022-10-02T06:16:01.915Z,1.20
2022-10-02T06:18:31.171Z,1.30
2022-10-02T06:21:08.340Z,1.40
2022-10-02T06:23:40.439Z,1.38
2022-10-02T06:26:17.309Z,0.93
2022-10-02T06:28:47.447Z,1.27
2022-10-02T06:31:24.470Z,1.20
2022-10-02T06:33:53.032Z,1.20
2022-10-02T06:36:30.845Z,1.27
2022-10-02T06:39:10.567Z,1.60
2022-10-02T06:41:47.324Z,1.60
2022-10-02T06:44:23.512Z,1.42
2022-10-02T06:46:51.715Z,1.40
2022-10-02T06:49:29.143Z,1.33
2022-10-02T06:51:59.570Z,1.40
2022-10-02T06:54:29.804Z,1.60
2022-10-02T06:56:59.956Z,1.95
2022-10-02T06:59:36.606Z,1.33
2022-10-02T07:02:03.811Z,1.67
2022-10-02T07:04:50.377Z,1.40
2022-10-02T07:07:23.981Z,1.48
2022-10-02T07:09:51.159Z,1.40
2022-10-02T07:12:21.294Z,1.73
2022-10-02T07:15:06.875Z,1.40
2022-10-02T07:17:36.792Z,1.63
2022-10-02T07:20:22.968Z,1.60
2022-10-02T07:22:50.151Z,1.45
2022-10-02T07:25:46.705Z,1.52
2022-10-02T07:28:32.464Z,2.00
2022-10-02T07:31:05.183Z,1.67
2022-10-02T07:33:42.433Z,1.20
2022-10-02T07:36:09.551Z,1.63
2022-10-02T07:38:45.923Z,1.40
2022-10-02T07:41:13.102Z,1.83
2022-10-02T07:43:59.364Z,1.40
2022-10-02T07:46:32.725Z,1.50
2022-10-02T07:49:02.987Z,1.35
2022-10-02T07:51:48.571Z,1.77
2022-10-02T07:54:25.068Z,1.55
2022-10-02T07:56:53.055Z,1.70
2022-10-02T07:59:21.475Z,1.40
2022-10-02T08:01:50.601Z,2.03
2022-10-02T08:04:34.641Z,1.75
2022-10-02T08:07:06.466Z,1.63
2022-10-02T08:09:42.508Z,1.48
2022-10-02T08:12:16.223Z,2.00
2022-10-02T08:14:45.397Z,1.15
2022-10-02T08:17:13.078Z,1.38
2022-10-02T08:19:43.329Z,1.40
2022-10-02T08:22:17.771Z,1.45
2022-10-02T08:24:50.258Z,1.40
2022-10-02T08:27:20.125Z,1.70
2022-10-02T08:29:50.319Z,1.55
2022-10-02T08:32:17.468Z,1.40
2022-10-02T08:34:44.809Z,1.50
2022-10-02T08:37:24.446Z,1.52
2022-10-02T08:40:10.599Z,1.33
2022-10-02T08:42:40.774Z,1.58
2022-10-02T08:45:15.384Z,1.50
2022-10-02T08:48:01.509Z,1.38
2022-10-02T08:50:37.955Z,1.50
2022-10-02T08:53:23.838Z,1.40
2022-10-02T08:55:58.984Z,1.70
2022-10-02T08:58:45.061Z,1.40
2022-10-02T09:01:12.241Z,2.35
2022-10-02T09:03:58.895Z,1.40
2022-10-02T09:06:26.031Z,2.00
2022-10-02T09:09:02.881Z,1.80
2022-10-02T09:11:50.415Z,1.73
2022-10-02T09:14:30.228Z,1.70
2022-10-02T09:17:00.416Z,1.42
2022-10-02T09:19:39.860Z,1.33
2022-10-02T09:22:22.080Z,1.42
2022-10-02T09:24:56.102Z,1.60
2022-10-02T09:27:23.343Z,1.77
2022-10-02T09:30:09.683Z,1.55
2022-10-02T09:32:58.286Z,1.77
2022-10-02T09:35:36.103Z,2.05
2022-10-02T09:38:14.387Z,1.42
2022-10-02T09:40:44.650Z,1.80
2022-10-02T09:43:14.936Z,1.60
2022-10-02T09:45:44.852Z,2.33
2022-10-02T09:48:21.050Z,1.95
2022-10-02T09:50:48.240Z,1.60
2022-10-02T09:53:35.182Z,1.70
2022-10-02T09:56:25.565Z,2.03
2022-10-02T09:58:52.674Z,1.85
2022-10-02T10:01:35.169Z,2.63
2022-10-02T10:04:21.441Z,1.95
2022-10-02T10:07:07.434Z,2.10
2022-10-02T10:09:53.350Z,1.80
2022-10-02T10:12:26.757Z,1.80
2022-10-02T10:15:08.984Z,1.90
2022-10-02T10:17:39.458Z,1.63
2022-10-02T10:20:36.745Z,1.55
2022-10-02T10:23:22.526Z,1.50
2022-10-02T10:26:08.559Z,1.23
2022-10-02T10:28:37.865Z,1.08
2022-10-02T10:31:31.413Z,1.13
2022-10-02T10:34:14.879Z,1.00
2022-10-02T10:37:13.835Z,1.20
2022-10-02T10:39:59.659Z,1.30
2022-10-02T10:43:06.404Z,1.20
2022-10-02T10:45:48.406Z,1.00
2022-10-02T10:48:21.681Z,1.38
2022-10-02T10:51:14.204Z,1.30
2022-10-02T10:54:02.097Z,0.95
2022-10-02T10:56:29.990Z,1.33
2022-10-02T10:59:05.059Z,1.10
2022-10-02T11:02:04.852Z,1.00
2022-10-02T11:04:32.101Z,1.00
2022-10-02T11:07:15.595Z,0.85
2022-10-02T11:10:03.068Z,1.08
2022-10-02T11:12:30.200Z,1.17
2022-10-02T11:15:17.699Z,1.10
2022-10-02T11:17:57.965Z,0.93
2022-10-02T11:20:31.852Z,0.90
2022-10-02T11:23:17.716Z,0.80
2022-10-02T11:25:45.175Z,1.10
2022-10-02T11:28:22.238Z,0.90
2022-10-02T11:30:58.735Z,0.80
2022-10-02T11:33:54.479Z,1.10
2022-10-02T11:36:30.022Z,1.00
2022-10-02T11:39:04.569Z,1.00
2022-10-02T11:41:59.474Z,0.80
2022-10-02T11:44:45.921Z,0.70
2022-10-02T11:47:32.008Z,0.35
2022-10-02T11:50:19.180Z,0.30
2022-10-02T11:52:52.448Z,0.50
2022-10-02T11:55:37.732Z,0.60
2022-10-02T12:00:38.895Z,0.40
2022-10-02T12:03:15.371Z,0.30
2022-10-02T12:06:15.416Z,0.30
2022-10-02T12:08:42.864Z,0.40
2022-10-02T12:11:13.286Z,0.30
2022-10-02T12:14:19.009Z,0.28
2022-10-02T12:16:53.081Z,0.32
2022-10-02T12:19:30.261Z,0.23
2022-10-02T12:22:25.353Z,0.50
2022-10-02T12:25:17.886Z,0.50
2022-10-02T12:28:14.658Z,0.40
2022-10-02T12:31:01.308Z,0.30
2022-10-02T12:33:44.181Z,0.50
2022-10-02T12:36:11.408Z,1.00
2022-10-02T12:38:55.553Z,0.40
2022-10-02T12:41:25.730Z,0.40
2022-10-02T12:44:10.530Z,0.32
2022-10-02T12:46:46.720Z,0.30
2022-10-02T12:49:31.280Z,0.50
2022-10-02T12:52:18.535Z,0.35
2022-10-02T12:55:04.806Z,0.30
2022-10-02T12:57:58.739Z,0.55
2022-10-02T13:00:44.564Z,0.25
2022-10-02T13:03:30.512Z,0.43
2022-10-02T13:06:29.856Z,0.40
2022-10-02T13:09:16.282Z,0.40
2022-10-02T13:11:52.506Z,0.30
2022-10-02T13:14:26.831Z,0.50
2022-10-02T13:17:11.752Z,0.25
2022-10-02T13:19:50.460Z,0.40
2022-10-02T13:22:31.538Z,0.32
2022-10-02T13:25:18.544Z,0.55
2022-10-02T13:27:49.663Z,0.70
2022-10-02T13:30:26.534Z,1.33
2022-10-02T13:33:29.411Z,1.20
2022-10-02T13:35:56.826Z,1.45
2022-10-02T13:38:24.661Z,1.05
2022-10-02T13:40:54.591Z,1.20
2022-10-02T13:43:22.014Z,1.73
2022-10-02T13:45:55.593Z,1.35
2022-10-02T13:48:34.961Z,1.45
2022-10-02T13:51:07.224Z,1.70
2022-10-02T13:53:34.483Z,1.42
2022-10-02T13:56:20.980Z,1.30
2022-10-02T13:58:58.800Z,1.30
2022-10-02T14:01:44.949Z,1.70
2022-10-02T14:04:30.832Z,1.30
2022-10-02T14:07:09.576Z,0.93
2022-10-02T14:09:44.243Z,1.23
2022-10-02T14:12:34.796Z,1.15
2022-10-02T14:15:04.803Z,1.00
2022-10-02T14:17:42.388Z,1.10
2022-10-02T14:20:21.871Z,0.90
2022-10-02T14:22:49.015Z,0.77
2022-10-02T14:25:23.118Z,0.70
2022-10-02T14:27:53.413Z,0.87
2022-10-02T14:30:21.758Z,0.90
2022-10-02T14:32:57.913Z,0.50
2022-10-02T14:35:40.357Z,0.60
2022-10-02T14:38:20.959Z,0.57
2022-10-02T14:40:58.291Z,0.60
2022-10-02T14:44:01.224Z,0.60
2022-10-02T14:46:36.600Z,0.63
2022-10-02T14:49:03.851Z,0.70
2022-10-02T14:51:40.885Z,0.60
2022-10-02T14:54:26.559Z,0.70
2022-10-02T14:57:06.034Z,0.60
2022-10-02T14:59:42.412Z,0.85
2022-10-02T15:02:09.491Z,0.80
2022-10-02T15:04:36.659Z,0.70
2022-10-02T15:07:06.872Z,1.08
2022-10-02T15:09:39.663Z,0.55
2022-10-02T15:12:06.751Z,1.20
2022-10-02T15:14:57.627Z,1.00
2022-10-02T15:17:49.105Z,0.93
2022-10-02T15:20:31.258Z,0.90
2022-10-02T15:23:03.293Z,0.80
2022-10-02T15:25:30.367Z,1.00
2022-10-02T15:28:34.602Z,1.13
2022-10-02T15:31:06.276Z,0.98
2022-10-02T15:33:46.145Z,0.90
2022-10-02T15:36:13.269Z,0.80
2022-10-02T15:38:43.631Z,0.93
2022-10-02T15:41:16.962Z,0.90
2022-10-02T15:43:44.391Z,1.10
2022-10-02T15:46:12.047Z,1.58
2022-10-02T15:48:52.294Z,1.23
2022-10-02T15:51:26.672Z,0.85
2022-10-02T15:54:13.575Z,0.80
2022-10-02T15:56:44.612Z,0.80
2022-10-02T15:59:30.947Z,0.82
2022-10-02T16:01:58.770Z,0.90
2022-10-02T16:04:26.959Z,0.60
2022-10-02T16:07:13.034Z,0.60
2022-10-02T16:09:49.229Z,0.50
2022-10-02T16:12:22.541Z,0.40
2022-10-02T16:14:49.866Z,0.60
2022-10-02T16:17:20.225Z,0.70
2022-10-02T16:19:47.497Z,0.95
2022-10-02T16:22:43.822Z,1.20
2022-10-02T16:25:17.794Z,1.00
2022-10-02T16:27:55.235Z,1.08
2022-10-02T16:30:24.215Z,0.80
2022-10-02T16:33:06.312Z,1.10
2022-10-02T16:35:53.745Z,1.20
2022-10-02T16:38:23.110Z,1.30
2022-10-02T16:40:57.746Z,1.75
2022-10-02T16:43:34.914Z,1.60
2022-10-02T16:46:38.731Z,1.20
2022-10-02T16:49:12.365Z,1.60
2022-10-02T16:51:46.270Z,1.50
2022-10-02T16:54:28.331Z,1.30
2022-10-02T16:57:15.011Z,1.33
2022-10-02T16:59:46.387Z,1.38
2022-10-02T17:02:17.984Z,1.80
2022-10-02T17:05:06.824Z,1.83
2022-10-02T17:07:42.163Z,1.77
2022-10-02T17:10:30.224Z,2.20
2022-10-02T17:13:13.952Z,1.90
2022-10-02T17:15:46.606Z,2.30
2022-10-02T17:18:20.480Z,2.35
2022-10-02T17:20:54.000Z,2.00
2022-10-02T17:23:27.661Z,2.08
2022-10-02T17:25:54.950Z,2.00
2022-10-02T17:28:29.514Z,2.60
2022-10-02T17:30:56.715Z,2.33
2022-10-02T17:33:27.347Z,2.25
2022-10-02T17:36:03.022Z,2.40
2022-10-02T17:38:40.332Z,2.50
2022-10-02T17:41:27.245Z,2.20
2022-10-02T17:43:54.605Z,1.73
2022-10-02T17:46:41.472Z,1.98
2022-10-02T17:49:15.438Z,1.60
2022-10-02T17:52:00.023Z,1.50
2022-10-02T17:54:51.999Z,1.33
2022-10-02T17:57:26.304Z,1.00
2022-10-02T18:00:12.249Z,1.50
2022-10-02T18:02:59.722Z,1.23
2022-10-02T18:05:27.556Z,1.67
2022-10-02T18:08:08.195Z,1.65
2022-10-02T18:10:39.919Z,1.80
2022-10-02T18:13:07.684Z,1.95
2022-10-02T18:15:56.949Z,1.98
2022-10-02T18:18:51.058Z,1.88
2022-10-02T18:21:31.267Z,2.03
2022-10-02T18:24:02.595Z,2.00
2022-10-02T18:26:49.280Z,1.80
2022-10-02T18:29:28.893Z,1.80
2022-10-02T18:32:09.171Z,1.50
2022-10-02T18:34:43.665Z,1.60
2022-10-02T18:37:17.636Z,1.33
2022-10-02T18:40:07.201Z,1.50
2022-10-02T18:42:44.439Z,1.52
2022-10-02T18:45:12.917Z,1.70
2022-10-02T18:47:40.832Z,1.50
2022-10-02T18:50:29.391Z,1.50
2022-10-02T18:53:12.769Z,1.65
2022-10-02T18:55:40.000Z,1.50
2022-10-02T18:58:26.136Z,1.48
2022-10-02T19:00:56.468Z,1.48
2022-10-02T19:03:26.676Z,2.03
2022-10-02T19:06:13.278Z,2.00
2022-10-02T19:08:59.259Z,1.65
2022-10-02T19:11:30.121Z,2.65
2022-10-02T19:14:02.283Z,1.95
2022-10-02T19:16:31.193Z,2.13
2022-10-02T19:19:11.368Z,1.90
2022-10-02T19:21:38.850Z,2.10
2022-10-02T19:24:14.266Z,2.00
2022-10-02T19:26:46.302Z,2.28
2022-10-02T19:29:22.910Z,1.92
2022-10-02T19:31:50.895Z,2.20
2022-10-02T19:34:21.059Z,1.95
2022-10-02T19:36:50.398Z,2.20
2022-10-02T19:39:30.527Z,1.90
2022-10-02T19:41:59.257Z,2.25
2022-10-02T19:44:27.275Z,2.10
2022-10-02T19:46:56.428Z,2.40
2022-10-02T19:49:28.420Z,2.08
2022-10-02T19:51:56.543Z,2.67
2022-10-02T19:54:32.244Z,2.40
2022-10-02T19:57:04.571Z,2.38
2022-10-02T19:59:42.619Z,2.50
2022-10-02T20:02:15.425Z,2.08
2022-10-02T20:04:42.688Z,2.38
2022-10-02T20:07:14.056Z,2.17
2022-10-02T20:09:53.647Z,1.90
2022-10-02T20:12:24.766Z,2.00
2022-10-02T20:14:55.025Z,2.00
2022-10-02T20:17:22.353Z,1.90
2022-10-02T20:19:58.000Z,2.00
2022-10-02T20:22:37.580Z,1.80
2022-10-02T20:25:09.270Z,2.03
2022-10-02T20:27:36.380Z,1.52
2022-10-02T20:30:06.264Z,1.60
2022-10-02T20:32:43.226Z,1.95
2022-10-02T20:35:13.430Z,2.20
2022-10-02T20:37:41.334Z,1.85
2022-10-02T20:40:08.697Z,1.75
2022-10-02T20:42:57.685Z,1.63
2022-10-02T20:45:30.187Z,1.90
2022-10-02T20:48:12.636Z,1.58
2022-10-02T20:50:46.663Z,1.45
2022-10-02T20:53:26.019Z,1.15
2022-10-02T20:56:05.042Z,1.33
2022-10-02T20:58:35.578Z,1.67
2022-10-02T21:01:02.728Z,1.50
2022-10-02T21:03:48.372Z,1.10
2022-10-02T21:06:21.615Z,1.25
2022-10-02T21:09:06.240Z,1.70
2022-10-02T21:11:54.390Z,1.60
2022-10-02T21:14:33.703Z,1.67
2022-10-02T21:17:19.547Z,1.70
2022-10-02T21:20:00.238Z,1.40
2022-10-02T21:22:30.432Z,1.30
2022-10-02T21:24:57.507Z,1.20
2022-10-02T21:27:27.758Z,1.45
2022-10-02T21:30:03.970Z,1.42
2022-10-02T21:32:36.866Z,1.40
2022-10-02T21:35:10.312Z,0.90
2022-10-02T21:37:47.747Z,1.10
2022-10-02T21:40:18.283Z,1.27
2022-10-02T21:42:54.418Z,2.10
2022-10-02T21:45:24.643Z,1.70
2022-10-02T21:48:07.078Z,1.63
2022-10-02T21:50:40.228Z,2.08
2022-10-02T21:53:33.693Z,2.50
2022-10-02T21:56:13.866Z,1.80
2022-10-02T21:58:59.603Z,2.30
2022-10-02T22:02:04.225Z,1.90
2022-10-02T22:04:32.594Z,2.25
2022-10-02T22:07:00.109Z,1.73
2022-10-02T22:09:31.667Z,2.22
2022-10-02T22:12:08.475Z,1.88
2022-10-02T22:14:36.407Z,2.38
2022-10-02T22:17:17.015Z,2.13
2022-10-02T22:19:53.846Z,2.00
2022-10-02T22:22:38.794Z,2.30
2022-10-02T22:25:09.114Z,2.10
2022-10-02T22:27:43.519Z,1.90
2022-10-02T22:30:27.242Z,1.75
2022-10-02T22:33:13.179Z,1.45
2022-10-02T22:35:48.945Z,1.23
2022-10-02T22:38:16.037Z,1.20
2022-10-02T22:41:01.352Z,1.70
2022-10-02T22:43:34.625Z,1.48
2022-10-02T22:46:19.744Z,1.20
2022-10-02T22:48:50.552Z,1.20
2022-10-02T22:51:21.148Z,1.25
2022-10-02T22:53:48.273Z,1.30
2022-10-02T22:56:34.236Z,1.30
2022-10-02T22:59:14.399Z,1.23
2022-10-02T23:01:48.438Z,1.00
2022-10-02T23:04:24.785Z,1.33
2022-10-02T23:07:07.183Z,1.17
2022-10-02T23:09:37.318Z,1.40
2022-10-02T23:12:15.144Z,1.60
2022-10-02T23:14:42.255Z,1.80
2022-10-02T23:17:09.484Z,2.17
2022-10-02T23:19:38.773Z,2.10
2022-10-02T23:22:10.001Z,2.15
2022-10-02T23:24:55.919Z,2.50
2022-10-02T23:27:27.351Z,2.35
2022-10-02T23:30:00.505Z,2.70
2022-10-02T23:32:46.692Z,2.88
2022-10-02T23:35:15.343Z,2.90
2022-10-02T23:37:51.469Z,2.67
2022-10-02T23:40:21.618Z,2.67
2022-10-02T23:42:51.796Z,4.15
2022-10-02T23:45:35.930Z,3.40
2022-10-02T23:48:05.533Z,2.83
2022-10-02T23:50:41.744Z,3.00
2022-10-02T23:53:08.919Z,2.70
2022-10-02T23:55:45.632Z,2.85
2022-10-02T23:58:18.776Z,2.38
